sensor_id;sensor_type;location;lat;lon;timestamp;temperature;humidity
4701;DHT22;8724;51.272;6.554;2024-01-30T00:01:47;11.60;99.90
4701;DHT22;8724;51.272;6.554;2024-01-30T00:04:16;11.60;99.90
4701;DHT22;8724;51.272;6.554;2024-01-30T00:06:45;11.60;99.90
4701;DHT22;8724;51.272;6.554;2024-01-30T00:09:13;11.60;99.90
4701;DHT22;8724;51.272;6.554;2024-01-30T00:11:42;11.60;99.90
4701;DHT22;8724;51.272;6.554;2024-01-30T00:14:11;11.60;99.90
4701;DHT22;8724;51.272;6.554;2024-01-30T00:16:41;11.60;99.90
4701;DHT22;8724;51.272;6.554;2024-01-30T00:19:09;11.60;99.90
4701;DHT22;8724;51.272;6.554;2024-01-30T00:21:37;11.60;99.90
4701;DHT22;8724;51.272;6.554;2024-01-30T00:24:06;11.60;99.90
4701;DHT22;8724;51.272;6.554;2024-01-30T00:26:34;11.60;99.90
4701;DHT22;8724;51.272;6.554;2024-01-30T00:29:02;11.60;99.90
4701;DHT22;8724;51.272;6.554;2024-01-30T00:31:32;11.60;99.90
4701;DHT22;8724;51.272;6.554;2024-01-30T00:34:00;11.60;99.90
4701;DHT22;8724;51.272;6.554;2024-01-30T00:36:29;11.60;99.90
4701;DHT22;8724;51.272;6.554;2024-01-30T00:38:57;11.60;99.90
4701;DHT22;8724;51.272;6.554;2024-01-30T00:41:25;11.60;99.90
4701;DHT22;8724;51.272;6.554;2024-01-30T00:43:54;11.60;99.90
4701;DHT22;8724;51.272;6.554;2024-01-30T00:46:22;11.60;99.90
4701;DHT22;8724;51.272;6.554;2024-01-30T00:48:52;11.60;99.90
4701;DHT22;8724;51.272;6.554;2024-01-30T00:51:20;11.60;99.90
4701;DHT22;8724;51.272;6.554;2024-01-30T00:53:49;11.60;99.90
4701;DHT22;8724;51.272;6.554;2024-01-30T00:56:17;11.60;99.90
4701;DHT22;8724;51.272;6.554;2024-01-30T00:58:46;11.50;99.90
4701;DHT22;8724;51.272;6.554;2024-01-30T01:01:14;11.50;99.90
4701;DHT22;8724;51.272;6.554;2024-01-30T01:03:43;11.50;99.90
4701;DHT22;8724;51.272;6.554;2024-01-30T01:06:13;11.50;99.90
4701;DHT22;8724;51.272;6.554;2024-01-30T01:08:41;11.50;99.90
4701;DHT22;8724;51.272;6.554;2024-01-30T01:11:09;11.50;99.90
4701;DHT22;8724;51.272;6.554;2024-01-30T01:13:37;11.50;99.90
4701;DHT22;8724;51.272;6.554;2024-01-30T01:16:06;11.50;99.90
4701;DHT22;8724;51.272;6.554;2024-01-30T01:18:35;11.50;99.90
4701;DHT22;8724;51.272;6.554;2024-01-30T01:21:03;11.50;99.90
4701;DHT22;8724;51.272;6.554;2024-01-30T01:23:33;11.50;99.90
4701;DHT22;8724;51.272;6.554;2024-01-30T01:26:01;11.50;99.90
4701;DHT22;8724;51.272;6.554;2024-01-30T01:28:29;11.50;99.90
4701;DHT22;8724;51.272;6.554;2024-01-30T01:30:57;11.50;99.90
4701;DHT22;8724;51.272;6.554;2024-01-30T01:33:31;11.50;99.90
4701;DHT22;8724;51.272;6.554;2024-01-30T01:36:00;11.50;99.90
4701;DHT22;8724;51.272;6.554;2024-01-30T01:38:29;11.50;99.90
4701;DHT22;8724;51.272;6.554;2024-01-30T01:40:58;11.50;99.90
4701;DHT22;8724;51.272;6.554;2024-01-30T01:43:27;11.50;99.90
4701;DHT22;8724;51.272;6.554;2024-01-30T01:45:55;11.50;99.90
4701;DHT22;8724;51.272;6.554;2024-01-30T01:48:24;11.50;99.90
4701;DHT22;8724;51.272;6.554;2024-01-30T01:50:52;11.50;99.90
4701;DHT22;8724;51.272;6.554;2024-01-30T01:53:21;11.50;99.90
4701;DHT22;8724;51.272;6.554;2024-01-30T01:55:49;11.50;99.90
4701;DHT22;8724;51.272;6.554;2024-01-30T01:58:21;11.50;99.90
4701;DHT22;8724;51.272;6.554;2024-01-30T02:00:50;11.40;99.90
4701;DHT22;8724;51.272;6.554;2024-01-30T02:03:19;11.40;99.90
4701;DHT22;8724;51.272;6.554;2024-01-30T02:05:50;11.40;99.90
4701;DHT22;8724;51.272;6.554;2024-01-30T02:08:18;11.40;99.90
4701;DHT22;8724;51.272;6.554;2024-01-30T02:10:47;11.40;99.90
4701;DHT22;8724;51.272;6.554;2024-01-30T02:13:15;11.40;99.90
4701;DHT22;8724;51.272;6.554;2024-01-30T02:15:49;11.40;99.90
4701;DHT22;8724;51.272;6.554;2024-01-30T02:18:17;11.40;99.90
4701;DHT22;8724;51.272;6.554;2024-01-30T02:20:45;11.40;99.90
4701;DHT22;8724;51.272;6.554;2024-01-30T02:23:16;11.40;99.90
4701;DHT22;8724;51.272;6.554;2024-01-30T02:25:44;11.40;99.90
4701;DHT22;8724;51.272;6.554;2024-01-30T02:28:12;11.40;99.90
4701;DHT22;8724;51.272;6.554;2024-01-30T02:30:42;11.40;99.90
4701;DHT22;8724;51.272;6.554;2024-01-30T02:33:10;11.40;99.90
4701;DHT22;8724;51.272;6.554;2024-01-30T02:35:39;11.40;99.90
4701;DHT22;8724;51.272;6.554;2024-01-30T02:38:07;11.40;99.90
4701;DHT22;8724;51.272;6.554;2024-01-30T02:40:36;11.40;99.90
4701;DHT22;8724;51.272;6.554;2024-01-30T02:43:05;11.40;99.90
4701;DHT22;8724;51.272;6.554;2024-01-30T02:45:33;11.40;99.90
4701;DHT22;8724;51.272;6.554;2024-01-30T02:48:01;11.40;99.90
4701;DHT22;8724;51.272;6.554;2024-01-30T02:50:29;11.40;99.90
4701;DHT22;8724;51.272;6.554;2024-01-30T02:52:57;11.40;99.90
4701;DHT22;8724;51.272;6.554;2024-01-30T02:55:25;11.40;99.90
4701;DHT22;8724;51.272;6.554;2024-01-30T02:57:55;11.40;99.90
4701;DHT22;8724;51.272;6.554;2024-01-30T03:00:24;11.30;99.90
4701;DHT22;8724;51.272;6.554;2024-01-30T03:02:52;11.40;99.90
4701;DHT22;8724;51.272;6.554;2024-01-30T03:05:20;11.40;99.90
4701;DHT22;8724;51.272;6.554;2024-01-30T03:07:48;11.30;99.90
4701;DHT22;8724;51.272;6.554;2024-01-30T03:10:16;11.30;99.90
4701;DHT22;8724;51.272;6.554;2024-01-30T03:12:44;11.30;99.90
4701;DHT22;8724;51.272;6.554;2024-01-30T03:15:14;11.30;99.90
4701;DHT22;8724;51.272;6.554;2024-01-30T03:17:42;11.30;99.90
4701;DHT22;8724;51.272;6.554;2024-01-30T03:20:11;11.30;99.90
4701;DHT22;8724;51.272;6.554;2024-01-30T03:22:39;11.30;99.90
4701;DHT22;8724;51.272;6.554;2024-01-30T03:25:07;11.30;99.90
4701;DHT22;8724;51.272;6.554;2024-01-30T03:27:36;11.30;99.90
4701;DHT22;8724;51.272;6.554;2024-01-30T03:30:05;11.30;99.90
4701;DHT22;8724;51.272;6.554;2024-01-30T03:32:35;11.30;99.90
4701;DHT22;8724;51.272;6.554;2024-01-30T03:35:04;11.30;99.90
4701;DHT22;8724;51.272;6.554;2024-01-30T03:37:33;11.30;99.90
4701;DHT22;8724;51.272;6.554;2024-01-30T03:40:02;11.30;99.90
4701;DHT22;8724;51.272;6.554;2024-01-30T03:42:31;11.30;99.90
4701;DHT22;8724;51.272;6.554;2024-01-30T03:44:59;11.30;99.90
4701;DHT22;8724;51.272;6.554;2024-01-30T03:47:27;11.30;99.90
4701;DHT22;8724;51.272;6.554;2024-01-30T03:49:57;11.40;99.90
4701;DHT22;8724;51.272;6.554;2024-01-30T03:52:25;11.30;99.90
4701;DHT22;8724;51.272;6.554;2024-01-30T03:54:53;11.30;99.90
4701;DHT22;8724;51.272;6.554;2024-01-30T03:57:21;11.30;99.90
4701;DHT22;8724;51.272;6.554;2024-01-30T03:59:49;11.30;99.90
4701;DHT22;8724;51.272;6.554;2024-01-30T04:02:17;11.30;99.90
4701;DHT22;8724;51.272;6.554;2024-01-30T04:04:46;11.30;99.90
4701;DHT22;8724;51.272;6.554;2024-01-30T04:07:15;11.30;99.90
4701;DHT22;8724;51.272;6.554;2024-01-30T04:09:46;11.20;99.90
4701;DHT22;8724;51.272;6.554;2024-01-30T04:12:14;11.30;99.90
4701;DHT22;8724;51.272;6.554;2024-01-30T04:14:42;11.20;99.90
4701;DHT22;8724;51.272;6.554;2024-01-30T04:17:10;11.20;99.90
4701;DHT22;8724;51.272;6.554;2024-01-30T04:19:38;11.20;99.90
4701;DHT22;8724;51.272;6.554;2024-01-30T04:22:07;11.20;99.90
4701;DHT22;8724;51.272;6.554;2024-01-30T04:24:37;11.20;99.90
4701;DHT22;8724;51.272;6.554;2024-01-30T04:27:05;11.20;99.90
4701;DHT22;8724;51.272;6.554;2024-01-30T04:29:33;11.20;99.90
4701;DHT22;8724;51.272;6.554;2024-01-30T04:32:01;11.20;99.90
4701;DHT22;8724;51.272;6.554;2024-01-30T04:34:29;11.20;99.90
4701;DHT22;8724;51.272;6.554;2024-01-30T04:38:47;11.20;99.90
4701;DHT22;8724;51.272;6.554;2024-01-30T04:41:15;11.20;99.90
4701;DHT22;8724;51.272;6.554;2024-01-30T04:43:43;11.20;99.90
4701;DHT22;8724;51.272;6.554;2024-01-30T04:46:12;11.20;99.90
4701;DHT22;8724;51.272;6.554;2024-01-30T04:48:40;11.20;99.90
4701;DHT22;8724;51.272;6.554;2024-01-30T04:51:08;11.20;99.90
4701;DHT22;8724;51.272;6.554;2024-01-30T04:53:36;11.20;99.90
4701;DHT22;8724;51.272;6.554;2024-01-30T04:56:08;11.20;99.90
4701;DHT22;8724;51.272;6.554;2024-01-30T04:58:36;11.20;99.90
4701;DHT22;8724;51.272;6.554;2024-01-30T05:01:04;11.20;99.90
4701;DHT22;8724;51.272;6.554;2024-01-30T05:03:33;11.20;99.90
4701;DHT22;8724;51.272;6.554;2024-01-30T05:06:02;11.20;99.90
4701;DHT22;8724;51.272;6.554;2024-01-30T05:08:30;11.20;99.90
4701;DHT22;8724;51.272;6.554;2024-01-30T05:11:00;11.20;99.90
4701;DHT22;8724;51.272;6.554;2024-01-30T05:13:31;11.20;99.90
4701;DHT22;8724;51.272;6.554;2024-01-30T05:16:01;11.20;99.90
4701;DHT22;8724;51.272;6.554;2024-01-30T05:18:30;11.20;99.90
4701;DHT22;8724;51.272;6.554;2024-01-30T05:20:58;11.20;99.90
4701;DHT22;8724;51.272;6.554;2024-01-30T05:23:26;11.20;99.90
4701;DHT22;8724;51.272;6.554;2024-01-30T05:25:55;11.20;99.90
4701;DHT22;8724;51.272;6.554;2024-01-30T05:28:23;11.20;99.90
4701;DHT22;8724;51.272;6.554;2024-01-30T05:30:52;11.20;99.90
4701;DHT22;8724;51.272;6.554;2024-01-30T05:33:21;11.20;99.90
4701;DHT22;8724;51.272;6.554;2024-01-30T05:35:49;11.20;99.90
4701;DHT22;8724;51.272;6.554;2024-01-30T05:38:21;11.20;99.90
4701;DHT22;8724;51.272;6.554;2024-01-30T05:40:49;11.10;99.90
4701;DHT22;8724;51.272;6.554;2024-01-30T05:43:18;11.10;99.90
4701;DHT22;8724;51.272;6.554;2024-01-30T05:45:46;11.30;99.90
4701;DHT22;8724;51.272;6.554;2024-01-30T05:48:16;11.10;99.90
4701;DHT22;8724;51.272;6.554;2024-01-30T05:50:44;11.10;99.90
4701;DHT22;8724;51.272;6.554;2024-01-30T05:53:12;11.10;99.90
4701;DHT22;8724;51.272;6.554;2024-01-30T05:55:40;11.20;99.90
4701;DHT22;8724;51.272;6.554;2024-01-30T05:58:09;11.10;99.90
4701;DHT22;8724;51.272;6.554;2024-01-30T06:00:37;11.10;99.90
4701;DHT22;8724;51.272;6.554;2024-01-30T06:03:05;11.10;99.90
4701;DHT22;8724;51.272;6.554;2024-01-30T06:05:34;11.10;99.90
4701;DHT22;8724;51.272;6.554;2024-01-30T06:08:03;11.10;99.90
4701;DHT22;8724;51.272;6.554;2024-01-30T06:10:31;11.10;99.90
4701;DHT22;8724;51.272;6.554;2024-01-30T06:12:59;11.10;99.90
4701;DHT22;8724;51.272;6.554;2024-01-30T06:15:28;11.10;99.90
4701;DHT22;8724;51.272;6.554;2024-01-30T06:17:56;11.10;99.90
4701;DHT22;8724;51.272;6.554;2024-01-30T06:20:24;11.10;99.90
4701;DHT22;8724;51.272;6.554;2024-01-30T06:22:54;11.10;99.90
4701;DHT22;8724;51.272;6.554;2024-01-30T06:25:22;11.10;99.90
4701;DHT22;8724;51.272;6.554;2024-01-30T06:27:51;11.20;99.90
4701;DHT22;8724;51.272;6.554;2024-01-30T06:30:19;11.10;99.90
4701;DHT22;8724;51.272;6.554;2024-01-30T06:32:47;11.10;99.90
4701;DHT22;8724;51.272;6.554;2024-01-30T06:35:16;11.10;99.90
4701;DHT22;8724;51.272;6.554;2024-01-30T06:37:44;11.10;99.90
4701;DHT22;8724;51.272;6.554;2024-01-30T06:40:14;11.10;99.90
4701;DHT22;8724;51.272;6.554;2024-01-30T06:42:42;11.10;99.90
4701;DHT22;8724;51.272;6.554;2024-01-30T06:45:10;11.10;99.90
4701;DHT22;8724;51.272;6.554;2024-01-30T06:47:38;11.10;99.90
4701;DHT22;8724;51.272;6.554;2024-01-30T06:50:07;11.20;99.90
4701;DHT22;8724;51.272;6.554;2024-01-30T06:52:35;11.10;99.90
4701;DHT22;8724;51.272;6.554;2024-01-30T06:55:04;11.10;99.90
4701;DHT22;8724;51.272;6.554;2024-01-30T06:57:33;11.10;99.90
4701;DHT22;8724;51.272;6.554;2024-01-30T07:00:02;11.10;99.90
4701;DHT22;8724;51.272;6.554;2024-01-30T07:02:31;11.20;99.90
4701;DHT22;8724;51.272;6.554;2024-01-30T07:04:59;11.10;99.90
4701;DHT22;8724;51.272;6.554;2024-01-30T07:07:27;11.20;99.90
4701;DHT22;8724;51.272;6.554;2024-01-30T07:09:56;11.10;99.90
4701;DHT22;8724;51.272;6.554;2024-01-30T07:12:24;11.10;99.90
4701;DHT22;8724;51.272;6.554;2024-01-30T07:14:54;11.20;99.90
4701;DHT22;8724;51.272;6.554;2024-01-30T07:17:23;11.10;99.90
4701;DHT22;8724;51.272;6.554;2024-01-30T07:19:51;11.20;99.90
4701;DHT22;8724;51.272;6.554;2024-01-30T07:22:20;11.20;99.90
4701;DHT22;8724;51.272;6.554;2024-01-30T07:24:48;11.20;99.90
4701;DHT22;8724;51.272;6.554;2024-01-30T07:27:18;11.20;99.90
4701;DHT22;8724;51.272;6.554;2024-01-30T07:29:46;11.20;99.90
4701;DHT22;8724;51.272;6.554;2024-01-30T07:32:16;11.10;99.90
4701;DHT22;8724;51.272;6.554;2024-01-30T07:34:45;11.20;99.90
4701;DHT22;8724;51.272;6.554;2024-01-30T07:37:32;11.20;99.90
4701;DHT22;8724;51.272;6.554;2024-01-30T07:40:01;11.20;99.90
4701;DHT22;8724;51.272;6.554;2024-01-30T07:42:31;11.20;99.90
4701;DHT22;8724;51.272;6.554;2024-01-30T07:44:59;11.20;99.90
4701;DHT22;8724;51.272;6.554;2024-01-30T07:47:29;11.20;99.90
4701;DHT22;8724;51.272;6.554;2024-01-30T07:49:57;11.20;99.90
4701;DHT22;8724;51.272;6.554;2024-01-30T07:52:25;11.20;99.90
4701;DHT22;8724;51.272;6.554;2024-01-30T07:54:54;11.20;99.90
4701;DHT22;8724;51.272;6.554;2024-01-30T07:57:22;11.20;99.90
4701;DHT22;8724;51.272;6.554;2024-01-30T07:59:51;11.20;99.90
4701;DHT22;8724;51.272;6.554;2024-01-30T08:02:19;11.20;99.90
4701;DHT22;8724;51.272;6.554;2024-01-30T08:04:49;11.20;99.90
4701;DHT22;8724;51.272;6.554;2024-01-30T08:07:17;11.20;99.90
4701;DHT22;8724;51.272;6.554;2024-01-30T08:09:45;11.20;99.90
4701;DHT22;8724;51.272;6.554;2024-01-30T08:12:13;11.20;99.90
4701;DHT22;8724;51.272;6.554;2024-01-30T08:14:41;11.20;99.90
4701;DHT22;8724;51.272;6.554;2024-01-30T08:17:09;11.20;99.90
4701;DHT22;8724;51.272;6.554;2024-01-30T08:19:38;11.30;99.90
4701;DHT22;8724;51.272;6.554;2024-01-30T08:22:07;11.20;99.90
4701;DHT22;8724;51.272;6.554;2024-01-30T08:24:36;11.20;99.90
4701;DHT22;8724;51.272;6.554;2024-01-30T08:27:04;11.20;99.90
4701;DHT22;8724;51.272;6.554;2024-01-30T08:29:32;11.20;99.90
4701;DHT22;8724;51.272;6.554;2024-01-30T08:32:00;11.20;99.90
4701;DHT22;8724;51.272;6.554;2024-01-30T08:34:28;11.30;99.90
4701;DHT22;8724;51.272;6.554;2024-01-30T08:36:56;11.20;99.90
4701;DHT22;8724;51.272;6.554;2024-01-30T08:39:26;11.40;99.90
4701;DHT22;8724;51.272;6.554;2024-01-30T08:41:54;11.20;99.90
4701;DHT22;8724;51.272;6.554;2024-01-30T08:44:22;11.20;99.90
4701;DHT22;8724;51.272;6.554;2024-01-30T08:46:50;11.20;99.90
4701;DHT22;8724;51.272;6.554;2024-01-30T08:49:20;11.20;99.90
4701;DHT22;8724;51.272;6.554;2024-01-30T08:51:48;11.30;99.90
4701;DHT22;8724;51.272;6.554;2024-01-30T08:54:17;11.30;99.90
4701;DHT22;8724;51.272;6.554;2024-01-30T08:56:46;11.30;99.90
4701;DHT22;8724;51.272;6.554;2024-01-30T08:59:15;11.30;99.90
4701;DHT22;8724;51.272;6.554;2024-01-30T09:01:43;11.30;99.90
4701;DHT22;8724;51.272;6.554;2024-01-30T09:04:29;11.20;99.90
4701;DHT22;8724;51.272;6.554;2024-01-30T09:06:57;11.40;99.90
4701;DHT22;8724;51.272;6.554;2024-01-30T09:09:25;11.30;99.90
4701;DHT22;8724;51.272;6.554;2024-01-30T09:11:55;11.30;99.90
4701;DHT22;8724;51.272;6.554;2024-01-30T09:14:24;11.30;99.90
4701;DHT22;8724;51.272;6.554;2024-01-30T09:16:52;11.30;99.90
4701;DHT22;8724;51.272;6.554;2024-01-30T09:19:20;11.30;99.90
4701;DHT22;8724;51.272;6.554;2024-01-30T09:21:49;11.30;99.90
4701;DHT22;8724;51.272;6.554;2024-01-30T09:24:17;11.30;99.90
4701;DHT22;8724;51.272;6.554;2024-01-30T09:26:45;11.30;99.90
4701;DHT22;8724;51.272;6.554;2024-01-30T09:29:15;11.30;99.90
4701;DHT22;8724;51.272;6.554;2024-01-30T09:31:44;11.40;99.90
4701;DHT22;8724;51.272;6.554;2024-01-30T09:34:12;11.40;99.90
4701;DHT22;8724;51.272;6.554;2024-01-30T09:36:41;11.40;99.90
4701;DHT22;8724;51.272;6.554;2024-01-30T09:39:09;11.40;99.90
4701;DHT22;8724;51.272;6.554;2024-01-30T09:41:44;11.40;99.90
4701;DHT22;8724;51.272;6.554;2024-01-30T09:44:15;11.40;99.90
4701;DHT22;8724;51.272;6.554;2024-01-30T09:46:47;11.40;99.90
4701;DHT22;8724;51.272;6.554;2024-01-30T09:49:15;11.50;99.90
4701;DHT22;8724;51.272;6.554;2024-01-30T09:51:48;11.40;99.90
4701;DHT22;8724;51.272;6.554;2024-01-30T09:54:17;11.50;99.90
4701;DHT22;8724;51.272;6.554;2024-01-30T09:56:47;11.40;99.90
4701;DHT22;8724;51.272;6.554;2024-01-30T09:59:17;11.40;99.90
4701;DHT22;8724;51.272;6.554;2024-01-30T10:01:45;11.50;99.90
4701;DHT22;8724;51.272;6.554;2024-01-30T10:04:14;11.50;99.90
4701;DHT22;8724;51.272;6.554;2024-01-30T10:06:42;11.50;99.90
4701;DHT22;8724;51.272;6.554;2024-01-30T10:09:11;11.50;99.90
4701;DHT22;8724;51.272;6.554;2024-01-30T10:11:40;11.50;99.90
4701;DHT22;8724;51.272;6.554;2024-01-30T10:14:08;11.50;99.90
4701;DHT22;8724;51.272;6.554;2024-01-30T10:16:37;11.50;99.90
4701;DHT22;8724;51.272;6.554;2024-01-30T10:19:05;11.50;99.90
4701;DHT22;8724;51.272;6.554;2024-01-30T10:21:35;11.60;99.90
4701;DHT22;8724;51.272;6.554;2024-01-30T10:24:03;11.60;99.90
4701;DHT22;8724;51.272;6.554;2024-01-30T10:26:32;11.60;99.90
4701;DHT22;8724;51.272;6.554;2024-01-30T10:29:01;11.60;99.90
4701;DHT22;8724;51.272;6.554;2024-01-30T10:31:29;11.60;99.90
4701;DHT22;8724;51.272;6.554;2024-01-30T10:33:59;11.70;99.90
4701;DHT22;8724;51.272;6.554;2024-01-30T10:36:43;11.60;99.90
4701;DHT22;8724;51.272;6.554;2024-01-30T10:39:16;11.60;99.90
4701;DHT22;8724;51.272;6.554;2024-01-30T10:41:47;11.60;99.90
4701;DHT22;8724;51.272;6.554;2024-01-30T10:44:19;11.60;99.90
4701;DHT22;8724;51.272;6.554;2024-01-30T10:46:50;11.70;99.90
4701;DHT22;8724;51.272;6.554;2024-01-30T10:49:21;11.70;99.90
4701;DHT22;8724;51.272;6.554;2024-01-30T10:51:52;11.70;99.90
4701;DHT22;8724;51.272;6.554;2024-01-30T10:54:21;11.70;99.90
4701;DHT22;8724;51.272;6.554;2024-01-30T10:56:51;11.70;99.90
4701;DHT22;8724;51.272;6.554;2024-01-30T10:59:21;11.70;99.90
4701;DHT22;8724;51.272;6.554;2024-01-30T11:01:51;11.70;99.90
4701;DHT22;8724;51.272;6.554;2024-01-30T11:04:21;11.80;99.90
4701;DHT22;8724;51.272;6.554;2024-01-30T11:06:50;11.80;99.90
4701;DHT22;8724;51.272;6.554;2024-01-30T11:09:18;11.80;99.90
4701;DHT22;8724;51.272;6.554;2024-01-30T11:11:50;11.80;99.90
4701;DHT22;8724;51.272;6.554;2024-01-30T11:14:23;11.80;99.90
4701;DHT22;8724;51.272;6.554;2024-01-30T11:16:52;11.80;99.90
4701;DHT22;8724;51.272;6.554;2024-01-30T11:19:25;11.80;99.90
4701;DHT22;8724;51.272;6.554;2024-01-30T11:21:54;11.80;99.90
4701;DHT22;8724;51.272;6.554;2024-01-30T11:24:24;11.80;99.90
4701;DHT22;8724;51.272;6.554;2024-01-30T11:26:56;11.80;99.90
4701;DHT22;8724;51.272;6.554;2024-01-30T11:29:24;11.80;99.90
4701;DHT22;8724;51.272;6.554;2024-01-30T11:31:53;11.80;99.90
4701;DHT22;8724;51.272;6.554;2024-01-30T11:34:21;11.80;99.90
4701;DHT22;8724;51.272;6.554;2024-01-30T11:36:56;11.90;99.90
4701;DHT22;8724;51.272;6.554;2024-01-30T11:39:26;11.90;99.90
4701;DHT22;8724;51.272;6.554;2024-01-30T11:41:55;11.90;99.90
4701;DHT22;8724;51.272;6.554;2024-01-30T11:44:23;11.90;99.90
4701;DHT22;8724;51.272;6.554;2024-01-30T11:46:52;11.90;99.90
4701;DHT22;8724;51.272;6.554;2024-01-30T11:49:20;11.90;99.90
4701;DHT22;8724;51.272;6.554;2024-01-30T11:51:49;11.90;99.90
4701;DHT22;8724;51.272;6.554;2024-01-30T11:54:19;11.90;99.90
4701;DHT22;8724;51.272;6.554;2024-01-30T11:56:47;11.90;99.90
4701;DHT22;8724;51.272;6.554;2024-01-30T11:59:15;11.90;99.90
4701;DHT22;8724;51.272;6.554;2024-01-30T12:01:43;11.90;99.90
4701;DHT22;8724;51.272;6.554;2024-01-30T12:04:11;11.90;99.90
4701;DHT22;8724;51.272;6.554;2024-01-30T12:06:39;11.90;99.90
4701;DHT22;8724;51.272;6.554;2024-01-30T12:09:09;12.00;99.90
4701;DHT22;8724;51.272;6.554;2024-01-30T12:11:45;12.00;99.90
4701;DHT22;8724;51.272;6.554;2024-01-30T12:14:14;12.00;99.90
4701;DHT22;8724;51.272;6.554;2024-01-30T12:16:42;12.00;99.90
4701;DHT22;8724;51.272;6.554;2024-01-30T12:19:10;12.00;99.90
4701;DHT22;8724;51.272;6.554;2024-01-30T12:21:39;12.00;99.90
4701;DHT22;8724;51.272;6.554;2024-01-30T12:24:07;12.10;99.90
4701;DHT22;8724;51.272;6.554;2024-01-30T12:26:35;12.10;99.90
4701;DHT22;8724;51.272;6.554;2024-01-30T12:29:05;12.10;99.90
4701;DHT22;8724;51.272;6.554;2024-01-30T12:31:33;12.10;99.90
4701;DHT22;8724;51.272;6.554;2024-01-30T12:34:02;12.10;99.90
4701;DHT22;8724;51.272;6.554;2024-01-30T12:36:31;12.10;99.90
4701;DHT22;8724;51.272;6.554;2024-01-30T12:38:59;12.10;99.90
4701;DHT22;8724;51.272;6.554;2024-01-30T12:41:27;12.20;99.90
4701;DHT22;8724;51.272;6.554;2024-01-30T12:43:58;12.20;99.90
4701;DHT22;8724;51.272;6.554;2024-01-30T12:46:29;12.20;99.90
4701;DHT22;8724;51.272;6.554;2024-01-30T12:48:57;12.20;99.90
4701;DHT22;8724;51.272;6.554;2024-01-30T12:51:25;12.20;99.90
4701;DHT22;8724;51.272;6.554;2024-01-30T12:53:54;12.20;99.90
4701;DHT22;8724;51.272;6.554;2024-01-30T12:56:22;12.20;99.90
4701;DHT22;8724;51.272;6.554;2024-01-30T12:58:50;12.20;99.90
4701;DHT22;8724;51.272;6.554;2024-01-30T13:01:21;12.20;99.90
4701;DHT22;8724;51.272;6.554;2024-01-30T13:03:52;12.20;99.90
4701;DHT22;8724;51.272;6.554;2024-01-30T13:06:20;12.30;99.90
4701;DHT22;8724;51.272;6.554;2024-01-30T13:08:49;12.20;99.90
4701;DHT22;8724;51.272;6.554;2024-01-30T13:11:17;12.30;99.90
4701;DHT22;8724;51.272;6.554;2024-01-30T13:13:47;12.30;99.90
4701;DHT22;8724;51.272;6.554;2024-01-30T13:16:16;12.30;99.90
4701;DHT22;8724;51.272;6.554;2024-01-30T13:18:44;12.50;99.90
4701;DHT22;8724;51.272;6.554;2024-01-30T13:21:14;12.30;99.90
4701;DHT22;8724;51.272;6.554;2024-01-30T13:23:42;12.30;99.90
4701;DHT22;8724;51.272;6.554;2024-01-30T13:26:11;12.30;99.90
4701;DHT22;8724;51.272;6.554;2024-01-30T13:28:39;12.30;99.90
4701;DHT22;8724;51.272;6.554;2024-01-30T13:31:07;12.30;99.90
4701;DHT22;8724;51.272;6.554;2024-01-30T13:33:35;12.30;99.90
4701;DHT22;8724;51.272;6.554;2024-01-30T13:36:04;12.30;99.90
4701;DHT22;8724;51.272;6.554;2024-01-30T13:38:34;12.30;99.90
4701;DHT22;8724;51.272;6.554;2024-01-30T13:41:03;12.30;99.90
4701;DHT22;8724;51.272;6.554;2024-01-30T13:43:31;12.40;99.90
4701;DHT22;8724;51.272;6.554;2024-01-30T13:46:00;12.40;99.90
4701;DHT22;8724;51.272;6.554;2024-01-30T13:48:28;12.40;99.90
4701;DHT22;8724;51.272;6.554;2024-01-30T13:50:56;12.40;99.90
4701;DHT22;8724;51.272;6.554;2024-01-30T13:53:25;12.40;99.90
4701;DHT22;8724;51.272;6.554;2024-01-30T13:55:54;12.50;99.90
4701;DHT22;8724;51.272;6.554;2024-01-30T13:58:22;12.40;99.90
4701;DHT22;8724;51.272;6.554;2024-01-30T14:00:51;12.40;99.90
4701;DHT22;8724;51.272;6.554;2024-01-30T14:03:19;12.50;99.90
4701;DHT22;8724;51.272;6.554;2024-01-30T14:05:47;12.50;99.90
4701;DHT22;8724;51.272;6.554;2024-01-30T14:08:16;12.50;99.90
4701;DHT22;8724;51.272;6.554;2024-01-30T14:10:45;12.50;99.90
4701;DHT22;8724;51.272;6.554;2024-01-30T14:13:15;12.50;99.90
4701;DHT22;8724;51.272;6.554;2024-01-30T14:15:43;12.50;99.90
4701;DHT22;8724;51.272;6.554;2024-01-30T14:18:11;12.50;99.90
4701;DHT22;8724;51.272;6.554;2024-01-30T14:20:40;12.50;99.90
4701;DHT22;8724;51.272;6.554;2024-01-30T14:23:08;12.50;99.90
4701;DHT22;8724;51.272;6.554;2024-01-30T14:25:36;12.50;99.90
4701;DHT22;8724;51.272;6.554;2024-01-30T14:28:05;12.50;99.90
4701;DHT22;8724;51.272;6.554;2024-01-30T14:30:35;12.50;99.90
4701;DHT22;8724;51.272;6.554;2024-01-30T14:33:04;12.50;99.90
4701;DHT22;8724;51.272;6.554;2024-01-30T14:35:33;12.60;99.90
4701;DHT22;8724;51.272;6.554;2024-01-30T14:38:02;12.60;99.90
4701;DHT22;8724;51.272;6.554;2024-01-30T14:40:31;12.50;99.90
4701;DHT22;8724;51.272;6.554;2024-01-30T14:43:00;12.50;99.90
4701;DHT22;8724;51.272;6.554;2024-01-30T14:45:28;12.50;99.90
4701;DHT22;8724;51.272;6.554;2024-01-30T14:48:00;12.50;99.90
4701;DHT22;8724;51.272;6.554;2024-01-30T14:50:28;12.60;99.90
4701;DHT22;8724;51.272;6.554;2024-01-30T14:52:56;12.50;99.90
4701;DHT22;8724;51.272;6.554;2024-01-30T14:55:25;12.60;99.90
4701;DHT22;8724;51.272;6.554;2024-01-30T14:57:53;12.50;99.90
4701;DHT22;8724;51.272;6.554;2024-01-30T15:00:22;12.50;99.90
4701;DHT22;8724;51.272;6.554;2024-01-30T15:02:50;12.50;99.90
4701;DHT22;8724;51.272;6.554;2024-01-30T15:05:20;12.50;99.90
4701;DHT22;8724;51.272;6.554;2024-01-30T15:07:48;12.50;99.90
4701;DHT22;8724;51.272;6.554;2024-01-30T15:10:16;12.50;99.90
4701;DHT22;8724;51.272;6.554;2024-01-30T15:12:45;12.40;99.90
4701;DHT22;8724;51.272;6.554;2024-01-30T15:15:14;12.40;99.90
4701;DHT22;8724;51.272;6.554;2024-01-30T15:17:42;12.40;99.90
4701;DHT22;8724;51.272;6.554;2024-01-30T15:20:10;12.40;99.90
4701;DHT22;8724;51.272;6.554;2024-01-30T15:22:40;12.40;99.90
4701;DHT22;8724;51.272;6.554;2024-01-30T15:25:08;12.40;99.90
4701;DHT22;8724;51.272;6.554;2024-01-30T15:27:37;12.30;99.90
4701;DHT22;8724;51.272;6.554;2024-01-30T15:30:06;12.30;99.90
4701;DHT22;8724;51.272;6.554;2024-01-30T15:32:34;12.30;99.90
4701;DHT22;8724;51.272;6.554;2024-01-30T15:35:03;12.30;99.90
4701;DHT22;8724;51.272;6.554;2024-01-30T15:37:33;12.30;99.90
4701;DHT22;8724;51.272;6.554;2024-01-30T15:40:03;12.30;99.90
4701;DHT22;8724;51.272;6.554;2024-01-30T15:42:33;12.30;99.90
4701;DHT22;8724;51.272;6.554;2024-01-30T15:45:01;12.30;99.90
4701;DHT22;8724;51.272;6.554;2024-01-30T15:47:29;12.30;99.90
4701;DHT22;8724;51.272;6.554;2024-01-30T15:49:58;12.30;99.90
4701;DHT22;8724;51.272;6.554;2024-01-30T15:52:27;12.30;99.90
4701;DHT22;8724;51.272;6.554;2024-01-30T15:54:55;12.30;99.90
4701;DHT22;8724;51.272;6.554;2024-01-30T15:57:25;12.30;99.90
4701;DHT22;8724;51.272;6.554;2024-01-30T15:59:56;12.30;99.90
4701;DHT22;8724;51.272;6.554;2024-01-30T16:02:24;12.30;99.90
4701;DHT22;8724;51.272;6.554;2024-01-30T16:04:52;12.30;99.90
4701;DHT22;8724;51.272;6.554;2024-01-30T16:07:20;12.00;99.90
4701;DHT22;8724;51.272;6.554;2024-01-30T16:09:48;12.30;99.90
4701;DHT22;8724;51.272;6.554;2024-01-30T16:12:18;12.30;99.90
4701;DHT22;8724;51.272;6.554;2024-01-30T16:14:47;12.30;99.90